Time;durP1;ratioP1;P1;durP2;ratioP2;P2;SDS_P1;SDS_P2;PMS_P1;PMS_P2;Temp;Humidity;BMP_temperature;BMP_pressure;BME280_temperature;BME280_humidity;BME280_pressure;Samples;Min_cycle;Max_cycle;Signal;HPM_P1;HPM_P2
2023/01/03 00:01:44;;;;;;;39.40;25.52;;;;;;;1.97;75.31;95855.69;4969409;28;20078;-69
2023/01/03 00:04:10;;;;;;;44.53;26.55;;;;;;;1.93;75.75;95861.81;4962924;28;20118;-69
2023/01/03 00:06:38;;;;;;;47.15;27.67;;;;;;;1.85;75.89;95843.31;4962595;28;20039;-68
2023/01/03 00:09:08;;;;;;;41.40;24.52;;;;;;;1.94;75.49;95851.50;4952449;29;20066;-69
2023/01/03 00:14:23;;;;;;;31.60;19.15;;;;;;;1.86;75.82;95857.78;4952544;28;20504;-68
2023/01/03 00:16:53;;;;;;;49.55;28.58;;;;;;;1.65;76.82;95823.44;4967710;28;20270;-68
2023/01/03 00:19:18;;;;;;;53.55;29.35;;;;;;;1.97;77.65;95856.53;4967194;28;20485;-68
2023/01/03 00:21:44;;;;;;;39.75;25.10;;;;;;;1.88;77.72;95846.59;4948840;28;20035;-68
2023/01/03 00:24:09;;;;;;;48.35;29.38;;;;;;;1.83;77.83;95858.72;4952114;29;20488;-68
2023/01/03 00:26:35;;;;;;;55.42;32.75;;;;;;;1.83;78.02;95845.06;4964783;28;20053;-69
2023/01/03 00:29:01;;;;;;;69.18;39.47;;;;;;;1.94;78.74;95854.06;4951953;28;20134;-68
2023/01/03 00:31:26;;;;;;;59.83;36.03;;;;;;;1.96;78.72;95859.16;4961017;28;20101;-69
2023/01/03 00:33:52;;;;;;;58.67;33.20;;;;;;;1.94;78.23;95859.19;4971196;28;20429;-69
2023/01/03 00:36:17;;;;;;;57.20;33.83;;;;;;;1.91;78.11;95856.75;4971146;28;20046;-69
2023/01/03 00:38:43;;;;;;;60.50;35.05;;;;;;;1.91;78.16;95849.06;4971057;28;20031;-69
2023/01/03 00:41:10;;;;;;;49.10;28.67;;;;;;;1.97;77.70;95853.13;4971178;28;20469;-69
2023/01/03 00:43:35;;;;;;;31.20;18.52;;;;;;;2.01;78.05;95867.53;4967597;28;20406;-69
2023/01/03 00:46:01;;;;;;;22.15;13.70;;;;;;;2.00;77.66;95860.72;4967927;28;20102;-69
2023/01/03 00:48:27;;;;;;;17.35;10.27;;;;;;;2.00;77.76;95850.47;4935752;28;20030;-69
2023/01/03 00:50:52;;;;;;;16.38;11.02;;;;;;;1.98;77.67;95857.41;4965110;28;20066;-69
2023/01/03 00:53:18;;;;;;;20.60;13.57;;;;;;;1.95;77.41;95853.22;4971623;28;20085;-68
2023/01/03 00:55:44;;;;;;;25.85;14.98;;;;;;;1.88;76.97;95844.03;4962558;28;20042;-69
2023/01/03 00:58:09;;;;;;;24.23;15.13;;;;;;;1.89;76.51;95840.56;4952780;28;20497;-69
2023/01/03 01:00:35;;;;;;;27.35;17.60;;;;;;;1.83;76.23;95835.66;4952608;28;20046;-68
2023/01/03 01:03:00;;;;;;;31.95;19.35;;;;;;;1.89;76.69;95849.97;4968576;28;20421;-69
2023/01/03 01:05:27;;;;;;;31.10;17.33;;;;;;;1.82;76.70;95835.72;4961529;28;20408;-69
2023/01/03 01:07:53;;;;;;;32.45;19.92;;;;;;;1.93;76.28;95847.28;4961608;28;20070;-68
2023/01/03 01:10:19;;;;;;;29.45;17.08;;;;;;;1.90;76.72;95849.13;4970292;28;20459;-69
2023/01/03 01:12:45;;;;;;;39.08;19.75;;;;;;;1.88;76.98;95846.59;4971647;28;20416;-68
2023/01/03 01:15:11;;;;;;;41.45;24.67;;;;;;;1.94;77.23;95841.25;4961738;28;20039;-69
2023/01/03 01:17:37;;;;;;;41.58;25.38;;;;;;;1.89;77.44;95835.44;4953491;28;20043;-68
2023/01/03 01:20:03;;;;;;;46.45;27.67;;;;;;;1.95;77.32;95844.66;4956144;28;20500;-69
2023/01/03 01:22:28;;;;;;;47.05;28.15;;;;;;;1.93;77.23;95831.91;4971645;28;20034;-69
2023/01/03 01:24:53;;;;;;;39.38;23.33;;;;;;;1.93;76.73;95842.16;4968741;28;20563;-68
2023/01/03 01:27:19;;;;;;;36.40;23.33;;;;;;;1.91;76.73;95835.41;4969061;28;20571;-68
2023/01/03 01:29:44;;;;;;;35.70;21.42;;;;;;;1.92;77.01;95834.50;4952485;28;20403;-68
2023/01/03 01:32:10;;;;;;;31.70;19.38;;;;;;;1.93;76.93;95823.38;4971263;28;20386;-68
2023/01/03 01:34:35;;;;;;;28.02;17.10;;;;;;;1.89;76.67;95832.03;4964038;28;20039;-69
2023/01/03 01:37:00;;;;;;;31.15;18.63;;;;;;;1.91;76.98;95827.72;4971772;28;20027;-68
2023/01/03 01:39:27;;;;;;;27.85;16.25;;;;;;;1.87;76.73;95826.16;4971906;28;20417;-68
2023/01/03 01:44:46;;;;;;;18.88;12.18;;;;;;;1.86;76.68;95825.28;4957143;28;20106;-68
2023/01/03 01:47:39;;;;;;;16.60;10.80;;;;;;;1.86;77.20;95830.41;4970915;28;20027;-68
2023/01/03 01:50:14;;;;;;;18.40;10.70;;;;;;;1.84;76.62;95824.53;4967917;28;20070;-68
2023/01/03 01:52:59;;;;;;;22.30;14.15;;;;;;;1.84;76.45;95827.09;4972139;28;20056;-69
2023/01/03 01:55:41;;;;;;;23.23;14.55;;;;;;;1.80;76.76;95820.38;4963144;28;20039;-68
2023/01/03 01:58:07;;;;;;;19.17;11.60;;;;;;;1.76;76.77;95817.09;4955848;28;20054;-68
2023/01/03 02:00:32;;;;;;;14.40;8.95;;;;;;;1.77;76.30;95823.88;4969601;28;20050;-69
2023/01/03 02:02:58;;;;;;;14.77;9.00;;;;;;;1.73;76.38;95824.03;4957749;28;20035;-69
2023/01/03 02:05:23;;;;;;;19.88;11.20;;;;;;;1.66;76.45;95808.00;4973740;28;20043;-68
2023/01/03 02:07:50;;;;;;;21.45;13.30;;;;;;;1.72;76.21;95825.75;4972091;28;20413;-69
2023/01/03 02:10:16;;;;;;;22.10;13.98;;;;;;;1.63;76.50;95812.41;4974088;28;20126;-69
2023/01/03 02:13:06;;;;;;;18.35;10.60;;;;;;;1.64;76.53;95814.91;4957809;28;20106;-68
2023/01/03 02:15:59;;;;;;;13.57;9.30;;;;;;;1.67;77.09;95816.53;4955623;28;20134;-68
2023/01/03 02:18:40;;;;;;;13.77;9.00;;;;;;;1.63;76.39;95813.22;4973291;28;20058;-68
2023/01/03 02:21:29;;;;;;;16.60;11.15;;;;;;;1.61;76.26;95814.16;4957504;28;20027;-68
2023/01/03 02:24:10;;;;;;;22.17;14.18;;;;;;;1.56;77.04;95817.72;4968488;28;20065;-68
2023/01/03 02:27:01;;;;;;;27.20;16.13;;;;;;;1.55;76.27;95813.47;4957621;28;20508;-68
2023/01/03 02:29:35;;;;;;;25.58;14.77;;;;;;;1.52;76.18;95811.00;4973709;28;20419;-69
2023/01/03 02:32:18;;;;;;;21.75;14.00;;;;;;;1.44;76.56;95810.41;4973279;28;20473;-68
2023/01/03 02:35:21;;;;;;;21.13;12.65;;;;;;;1.48;76.71;95811.16;4954231;29;20411;-68
2023/01/03 02:37:52;;;;;;;21.90;13.15;;;;;;;1.44;76.53;95809.56;4953947;29;20097;-68
2023/01/03 02:40:28;;;;;;;22.30;14.90;;;;;;;1.41;76.43;95813.06;4970880;28;20043;-69
2023/01/03 02:43:01;;;;;;;27.80;17.30;;;;;;;1.31;76.70;95794.59;4956711;28;20041;-68
2023/01/03 02:45:48;;;;;;;25.83;16.02;;;;;;;1.36;76.28;95809.81;4957975;28;20039;-69
2023/01/03 02:48:51;;;;;;;26.52;16.45;;;;;;;1.36;76.20;95816.66;4965171;28;20391;-69
2023/01/03 02:51:47;;;;;;;22.73;14.77;;;;;;;1.31;76.22;95817.66;4953759;29;20429;-69
2023/01/03 02:54:19;;;;;;;23.08;14.05;;;;;;;1.22;76.17;95809.41;4956208;28;20134;-69
2023/01/03 02:56:51;;;;;;;24.27;14.25;;;;;;;1.27;76.32;95816.06;4953374;29;20027;-69
2023/01/03 02:59:22;;;;;;;18.45;12.63;;;;;;;1.22;76.14;95810.22;4953469;29;20035;-68
2023/01/03 03:01:49;;;;;;;19.23;11.25;;;;;;;1.20;76.10;95808.59;4954177;28;20405;-68
2023/01/03 03:04:15;;;;;;;16.75;10.13;;;;;;;1.16;76.03;95789.09;4953305;28;20043;-68
2023/01/03 03:06:46;;;;;;;17.85;11.95;;;;;;;1.22;76.27;95802.53;4953424;29;20024;-69
2023/01/03 03:09:11;;;;;;;20.70;12.85;;;;;;;1.17;76.49;95794.19;4955802;28;20122;-68
2023/01/03 03:14:48;;;;;;;23.92;13.63;;;;;;;1.15;76.54;95800.25;4959281;28;20094;-69
2023/01/03 03:17:19;;;;;;;22.27;14.82;;;;;;;1.11;76.25;95796.91;4986844;28;20464;-69
2023/01/03 03:25:25;;;;;;;22.23;13.52;;;;;;;1.12;76.73;95796.06;4972292;28;20049;-69
2023/01/03 03:30:37;;;;;;;29.80;19.55;;;;;;;1.03;76.31;95798.88;4958956;28;20061;-68
2023/01/03 03:33:05;;;;;;;27.88;17.77;;;;;;;1.00;76.37;95793.84;4956316;28;20031;-68
2023/01/03 03:35:32;;;;;;;29.50;18.02;;;;;;;1.05;76.81;95804.78;4954868;28;20043;-68
2023/01/03 03:37:58;;;;;;;28.38;17.30;;;;;;;1.05;76.95;95807.34;4956245;28;20106;-69
2023/01/03 03:46:13;;;;;;;19.10;12.98;;;;;;;1.05;76.55;95809.91;4966604;28;20053;-69
2023/01/03 03:51:51;;;;;;;25.42;16.45;;;;;;;0.96;77.39;95810.19;4953870;29;20489;-68
2023/01/03 03:54:18;;;;;;;27.55;17.30;;;;;;;0.87;77.18;95804.44;4951954;28;20039;-69
2023/01/03 03:56:45;;;;;;;29.42;18.90;;;;;;;0.92;77.29;95819.69;4969955;28;20035;-69
2023/01/03 03:59:11;;;;;;;29.80;18.73;;;;;;;0.98;76.57;95813.53;4972897;28;20039;-68
2023/01/03 04:01:37;;;;;;;28.17;17.50;;;;;;;0.97;77.07;95815.25;4971748;28;20038;-68
2023/01/03 04:04:06;;;;;;;21.05;14.13;;;;;;;0.90;77.01;95813.75;4953763;28;20074;-68
2023/01/03 04:06:38;;;;;;;25.17;15.43;;;;;;;0.97;76.92;95816.97;4952384;29;20130;-69
2023/01/03 04:09:03;;;;;;;;;;;;;;;0.97;77.47;95815.25;4953054;28;20032;-68
2023/01/03 04:11:28;;;;;;;26.63;15.93;;;;;;;0.92;77.26;95806.03;4965578;28;19925;-68
2023/01/03 04:13:54;;;;;;;29.58;18.17;;;;;;;0.77;77.18;95782.56;4971559;28;20484;-68
2023/01/03 04:16:19;;;;;;;25.45;17.55;;;;;;;0.89;77.15;95805.25;4971578;28;20030;-68
2023/01/03 04:18:45;;;;;;;25.77;17.73;;;;;;;0.86;77.10;95792.56;4972359;28;20042;-68
2023/01/03 04:21:10;;;;;;;29.13;18.80;;;;;;;0.89;76.76;95802.69;4971477;28;20050;-68
2023/01/03 04:23:35;;;;;;;28.20;17.23;;;;;;;0.88;76.65;95801.00;4971319;28;20035;-69
2023/01/03 04:26:01;;;;;;;25.15;17.65;;;;;;;0.85;76.84;95800.25;4963882;28;20027;-69
2023/01/03 04:28:26;;;;;;;39.70;22.23;;;;;;;0.86;77.27;95801.91;4951904;28;20485;-69
2023/01/03 04:30:52;;;;;;;47.35;27.42;;;;;;;0.87;77.20;95799.34;4953197;28;20054;-68
2023/01/03 04:33:17;;;;;;;44.65;26.65;;;;;;;0.82;78.41;95802.91;4951784;29;20035;-68
2023/01/03 04:35:42;;;;;;;39.78;24.65;;;;;;;0.78;78.25;95794.50;4968049;28;20038;-68
2023/01/03 04:38:08;;;;;;;44.15;25.08;;;;;;;0.85;78.54;95811.31;4955081;28;20039;-68
2023/01/03 04:40:34;;;;;;;42.83;25.73;;;;;;;0.85;78.41;95808.78;4970295;28;20038;-68
2023/01/03 04:45:43;;;;;;;47.63;29.92;;;;;;;0.97;79.43;95820.34;4957529;28;20057;-69
2023/01/03 04:48:09;;;;;;;46.38;27.08;;;;;;;1.01;79.92;95824.53;4971109;28;20035;-69
2023/01/03 04:50:34;;;;;;;42.00;27.05;;;;;;;1.04;79.83;95832.09;4954222;28;20405;-69
2023/01/03 04:53:00;;;;;;;34.55;21.55;;;;;;;1.04;79.60;95831.28;4971282;28;20031;-69
2023/01/03 04:55:25;;;;;;;34.95;21.48;;;;;;;1.09;79.36;95835.38;4969507;28;20035;-68
2023/01/03 04:57:51;;;;;;;32.55;20.05;;;;;;;1.10;79.33;95831.09;4954763;28;20141;-69
2023/01/03 05:00:16;;;;;;;32.55;18.92;;;;;;;1.17;78.83;95850.50;4970747;28;20030;-69
2023/01/03 05:02:42;;;;;;;28.90;18.38;;;;;;;1.20;77.60;95845.28;4958770;28;20027;-68
2023/01/03 05:05:07;;;;;;;29.63;17.40;;;;;;;1.11;78.23;95843.00;4966534;28;20035;-69
2023/01/03 05:07:33;;;;;;;28.20;18.08;;;;;;;1.19;78.03;95853.84;4980520;28;20039;-68
2023/01/03 05:09:58;;;;;;;30.05;18.20;;;;;;;1.20;78.42;95847.84;4977281;28;20489;-69
2023/01/03 05:12:24;;;;;;;34.90;20.83;;;;;;;1.13;78.16;95851.47;4968222;28;20109;-69
2023/01/03 05:14:49;;;;;;;32.85;20.52;;;;;;;1.14;77.23;95850.56;4998263;28;20034;-68
2023/01/03 05:17:17;;;;;;;24.75;16.55;;;;;;;1.07;77.08;95847.38;4997935;28;20030;-68
2023/01/03 05:27:56;;;;;;;17.13;10.80;;;;;;;0.67;75.65;95847.69;4978549;28;20081;-68
2023/01/03 05:30:22;;;;;;;19.20;11.85;;;;;;;0.69;76.58;95856.13;4977211;28;20465;-68
2023/01/03 05:32:47;;;;;;;20.55;11.95;;;;;;;0.65;76.09;95852.81;4984586;28;20442;-68
2023/01/03 05:35:13;;;;;;;22.58;13.43;;;;;;;0.62;76.13;95854.63;4998142;28;20038;-68
2023/01/03 05:37:38;;;;;;;22.55;13.88;;;;;;;0.66;76.08;95853.66;4996468;28;20037;-71
2023/01/03 05:40:04;;;;;;;20.67;13.98;;;;;;;0.62;76.00;95837.56;4998080;28;20046;-70
2023/01/03 05:42:29;;;;;;;23.00;13.45;;;;;;;0.69;75.57;95840.78;4980225;28;20030;-69
2023/01/03 05:44:55;;;;;;;22.08;13.77;;;;;;;0.65;75.91;95847.72;4980205;28;20412;-70
2023/01/03 05:47:20;;;;;;;21.13;14.13;;;;;;;0.56;75.99;95840.28;4997561;28;20409;-70
2023/01/03 05:49:46;;;;;;;36.50;22.48;;;;;;;0.57;76.28;95844.50;4996544;28;20420;-70
2023/01/03 05:52:11;;;;;;;53.65;30.50;;;;;;;0.57;77.07;95843.69;4980052;28;20479;-70
2023/01/03 05:54:36;;;;;;;54.60;33.33;;;;;;;0.51;76.62;95838.75;4997806;28;20038;-70
2023/01/03 05:57:02;;;;;;;74.90;39.85;;;;;;;0.43;77.53;95833.81;4996880;28;20030;-70
2023/01/03 05:59:27;;;;;;;79.80;41.92;;;;;;;0.57;77.16;95851.34;4989077;28;20027;-70
2023/01/03 06:01:53;;;;;;;57.00;29.42;;;;;;;0.60;77.25;95861.50;4953022;28;20046;-70
2023/01/03 06:04:18;;;;;;;39.97;22.02;;;;;;;0.54;76.88;95856.56;4978217;28;20035;-69
2023/01/03 06:06:44;;;;;;;32.75;18.85;;;;;;;0.68;76.70;95871.53;4961180;28;20154;-69
2023/01/03 06:09:09;;;;;;;31.48;16.88;;;;;;;0.68;75.46;95869.81;4976752;28;20042;-69
2023/01/03 06:11:35;;;;;;;20.42;12.88;;;;;;;0.51;76.28;95861.75;4959182;28;20031;-69
2023/01/03 06:14:00;;;;;;;27.77;16.15;;;;;;;0.50;75.96;95858.34;4957370;28;20395;-69
2023/01/03 06:19:10;;;;;;;33.97;17.55;;;;;;;0.38;76.37;95867.19;4973300;28;20042;-69
2023/01/03 06:21:35;;;;;;;48.20;25.15;;;;;;;0.47;76.43;95863.53;4973150;28;20023;-69
2023/01/03 06:24:01;;;;;;;61.75;29.58;;;;;;;0.48;76.51;95883.13;4955482;28;20478;-69
2023/01/03 06:26:26;;;;;;;84.57;33.92;;;;;;;0.49;75.87;95874.56;4954232;29;20142;-70
2023/01/03 06:28:52;;;;;;;103.05;43.95;;;;;;;0.53;76.04;95880.44;4954137;28;20047;-69
2023/01/03 06:31:17;;;;;;;100.95;43.95;;;;;;;0.49;75.91;95878.84;4954151;29;20035;-71
2023/01/03 06:33:43;;;;;;;113.88;47.67;;;;;;;0.44;76.06;95878.97;4954074;28;20438;-69
2023/01/03 06:36:13;;;;;;;75.32;36.10;;;;;;;0.32;75.72;95866.50;4937667;29;20031;-69
2023/01/03 06:38:39;;;;;;;80.10;36.05;;;;;;;0.46;76.09;95884.03;4967735;28;20634;-69
2023/01/03 06:41:04;;;;;;;60.63;30.77;;;;;;;0.35;75.91;95871.53;4980733;28;20034;-69
2023/01/03 06:43:30;;;;;;;75.15;37.65;;;;;;;0.47;75.60;95878.88;4955942;28;20023;-69
2023/01/03 06:54:08;;;;;;;69.15;37.15;;;;;;;0.33;76.14;95873.28;4947100;28;20053;-69
2023/01/03 06:56:33;;;;;;;72.50;40.95;;;;;;;0.21;76.22;95865.06;4972344;28;20505;-69
2023/01/03 06:58:59;;;;;;;62.10;36.15;;;;;;;0.29;76.12;95880.22;4968148;28;20345;-69
2023/01/03 07:01:24;;;;;;;53.60;27.77;;;;;;;0.26;76.51;95877.72;4962060;28;20556;-69
2023/01/03 07:03:50;;;;;;;55.20;31.15;;;;;;;0.39;76.56;95896.13;4979124;28;20476;-69
2023/01/03 07:06:15;;;;;;;93.00;40.90;;;;;;;0.53;76.16;95895.78;4983588;28;20023;-71
2023/01/03 07:08:40;;;;;;;105.90;42.95;;;;;;;0.16;76.65;95860.94;4973223;28;20031;-71
2023/01/03 07:11:06;;;;;;;53.33;26.83;;;;;;;0.32;76.71;95904.84;4969471;28;20031;-70
2023/01/03 07:16:16;;;;;;;51.65;28.70;;;;;;;0.48;78.15;95918.09;4962627;28;20523;-72
2023/01/03 07:18:42;;;;;;;66.50;33.42;;;;;;;0.57;77.92;95918.69;4959547;28;20034;-70
2023/01/03 07:21:07;;;;;;;67.63;33.10;;;;;;;0.56;77.78;95903.38;4979010;28;20528;-72
2023/01/03 07:23:33;;;;;;;73.47;37.50;;;;;;;0.63;78.08;95910.84;4965918;28;20114;-69
2023/01/03 07:25:58;;;;;;;68.70;36.10;;;;;;;0.78;77.87;95917.28;4968475;28;20127;-69
2023/01/03 07:28:24;;;;;;;70.40;37.05;;;;;;;0.82;77.86;95918.03;4952816;28;20049;-69
2023/01/03 07:30:49;;;;;;;59.55;34.95;;;;;;;0.95;77.77;95923.63;4970006;28;20027;-70
2023/01/03 07:33:15;;;;;;;55.45;32.63;;;;;;;0.87;77.77;95905.97;4972105;28;20089;-70
2023/01/03 07:35:40;;;;;;;51.22;30.42;;;;;;;0.95;77.55;95911.69;4972105;28;20109;-71
2023/01/03 07:38:06;;;;;;;54.28;33.60;;;;;;;1.02;78.01;95915.75;4971069;28;20105;-70
2023/01/03 07:40:32;;;;;;;63.60;36.58;;;;;;;1.07;77.67;95921.59;4971239;28;20042;-70
2023/01/03 07:45:42;;;;;;;50.80;30.30;;;;;;;1.09;77.11;95921.56;4970149;28;20523;-70
2023/01/03 07:48:07;;;;;;;46.83;28.77;;;;;;;1.17;77.15;95919.63;4970148;28;20042;-70
2023/01/03 07:50:33;;;;;;;48.38;28.48;;;;;;;1.20;77.40;95905.88;4986407;28;20096;-70
2023/01/03 07:52:58;;;;;;;42.20;27.58;;;;;;;1.30;77.72;95913.25;4969803;28;20031;-70
2023/01/03 07:55:24;;;;;;;44.63;27.42;;;;;;;1.36;77.60;95916.50;4970603;28;20046;-70
2023/01/03 07:57:49;;;;;;;48.88;30.08;;;;;;;1.36;77.92;95921.63;4988118;28;20135;-70
2023/01/03 08:00:15;;;;;;;40.05;25.10;;;;;;;1.44;77.46;95927.38;4955839;28;20422;-70
2023/01/03 08:02:41;;;;;;;39.03;24.95;;;;;;;1.54;77.41;95915.97;4972898;28;20031;-70
2023/01/03 08:05:06;;;;;;;39.67;25.55;;;;;;;1.50;77.17;95891.34;4987955;28;20035;-70
2023/01/03 08:07:32;;;;;;;40.58;27.25;;;;;;;1.76;77.54;95919.56;4973040;28;20031;-70
2023/01/03 08:15:25;;;;;;;40.78;26.90;;;;;;;2.17;77.92;95927.69;4971919;28;20045;-70
2023/01/03 08:17:50;;;;;;;38.90;24.08;;;;;;;2.29;77.78;95921.31;4971488;28;20027;-70
2023/01/03 08:20:16;;;;;;;32.65;21.42;;;;;;;2.39;77.08;95914.97;4971518;28;20034;-70
2023/01/03 08:22:41;;;;;;;39.97;23.98;;;;;;;2.23;77.00;95883.06;4972520;28;20031;-70
2023/01/03 08:25:07;;;;;;;40.47;24.67;;;;;;;2.59;77.42;95916.91;4972887;28;20482;-70
2023/01/03 08:27:33;;;;;;;37.78;23.30;;;;;;;2.74;77.37;95914.69;4972435;28;20390;-70
2023/01/03 08:29:58;;;;;;;40.70;26.23;;;;;;;2.94;77.27;95914.81;4972856;28;20050;-71
2023/01/03 08:32:23;;;;;;;38.28;23.80;;;;;;;3.03;76.74;95908.53;4972670;28;20023;-70
2023/01/03 08:34:49;;;;;;;38.97;25.00;;;;;;;3.06;76.76;95904.09;4987349;28;20042;-71
2023/01/03 08:37:15;;;;;;;38.17;24.83;;;;;;;3.12;77.01;95896.22;4971472;28;20059;-70
2023/01/03 08:39:50;;;;;;;53.17;33.47;;;;;;;3.18;78.23;95908.00;4970877;28;20500;-69
2023/01/03 08:42:16;;;;;;;48.55;32.55;;;;;;;3.34;78.22;95901.41;4971852;28;20038;-70
2023/01/03 08:44:43;;;;;;;48.33;31.30;;;;;;;3.58;77.51;95907.31;4971144;28;20039;-71
2023/01/03 08:47:09;;;;;;;64.78;39.67;;;;;;;3.73;76.83;95910.19;4970344;28;20030;-69
2023/01/03 08:49:34;;;;;;;89.45;48.85;;;;;;;3.91;76.78;95908.66;4970820;28;20097;-70
2023/01/03 08:52:00;;;;;;;102.95;52.40;;;;;;;3.94;76.25;95893.13;4968114;28;20490;-71
2023/01/03 08:54:25;;;;;;;88.90;50.72;;;;;;;4.28;75.36;95900.31;4951809;28;20062;-71
2023/01/03 08:56:51;;;;;;;80.72;47.42;;;;;;;4.42;74.98;95908.28;4952570;28;20034;-70
2023/01/03 08:59:16;;;;;;;79.03;48.22;;;;;;;4.55;74.60;95915.53;4953197;28;20402;-70
2023/01/03 09:01:41;;;;;;;89.75;50.72;;;;;;;4.64;74.99;95902.25;4952765;28;20046;-69
2023/01/03 09:04:07;;;;;;;88.28;51.42;;;;;;;4.71;74.77;95898.53;4954808;28;20417;-69
2023/01/03 09:06:33;;;;;;;97.22;53.90;;;;;;;4.79;74.56;95899.06;4970827;28;20019;-70
2023/01/03 09:09:03;;;;;;;80.05;50.42;;;;;;;4.95;74.06;95898.38;4971883;28;20035;-71
2023/01/03 09:11:28;;;;;;;77.43;46.08;;;;;;;4.81;74.18;95894.66;4970739;28;20398;-72
2023/01/03 09:13:54;;;;;;;68.35;42.00;;;;;;;4.89;74.16;95882.28;4970749;28;20037;-71
2023/01/03 09:16:20;;;;;;;67.70;42.25;;;;;;;4.97;74.12;95894.00;4970789;28;20100;-72
2023/01/03 09:18:45;;;;;;;58.53;38.95;;;;;;;5.08;73.94;95887.47;4970576;28;20113;-73
2023/01/03 09:21:11;;;;;;;64.30;40.15;;;;;;;5.23;73.47;95879.97;4980535;28;20088;-73
2023/01/03 09:23:36;;;;;;;67.43;40.50;;;;;;;5.28;72.89;95878.00;4991237;28;20101;-73
2023/01/03 09:26:02;;;;;;;63.75;40.25;;;;;;;5.50;72.36;95870.16;4973938;28;20034;-73
2023/01/03 09:28:27;;;;;;;64.18;39.38;;;;;;;5.70;71.72;95875.19;4973887;28;20030;-73
2023/01/03 09:30:53;;;;;;;59.05;38.30;;;;;;;5.77;71.41;95862.88;4973896;28;20023;-73
2023/01/03 09:33:18;;;;;;;56.53;37.88;;;;;;;5.75;71.60;95868.09;4973764;28;20169;-73
2023/01/03 09:35:44;;;;;;;62.25;38.10;;;;;;;5.69;71.69;95852.91;4957762;28;20027;-73
2023/01/03 09:38:09;;;;;;;57.75;37.90;;;;;;;5.80;71.12;95845.50;4973778;28;20030;-73
2023/01/03 09:40:37;;;;;;;57.85;38.00;;;;;;;5.82;71.23;95843.69;4989250;28;20492;-73
2023/01/03 09:43:12;;;;;;;59.67;37.20;;;;;;;5.88;70.74;95803.03;4970764;28;20034;-73
2023/01/03 09:45:38;;;;;;;54.72;37.33;;;;;;;6.23;69.89;95840.88;4955461;28;20053;-73
2023/01/03 09:48:04;;;;;;;58.70;38.70;;;;;;;6.21;70.47;95844.44;4970733;28;20027;-73
2023/01/03 09:50:33;;;;;;;56.10;36.88;;;;;;;5.86;71.42;95839.22;4954474;28;20125;-73
2023/01/03 10:05:00;;;;;;;52.85;32.78;;;;;;;6.60;69.71;95820.97;4994931;28;20045;-73
2023/01/03 10:08:09;;;;;;;55.78;34.00;;;;;;;6.58;70.07;95799.56;4994467;28;20038;-73
2023/01/03 10:11:06;;;;;;;60.10;36.13;;;;;;;6.70;70.04;95808.41;4922731;29;20048;-73
2023/01/03 10:13:58;;;;;;;62.22;38.85;;;;;;;6.89;69.13;95810.88;4914308;29;20043;-73
2023/01/03 10:16:35;;;;;;;59.38;39.35;;;;;;;6.99;69.59;95808.63;4970590;28;20066;-74
2023/01/03 10:19:25;;;;;;;68.22;41.45;;;;;;;6.90;68.64;95792.69;4966772;28;20043;-73
2023/01/03 10:21:56;;;;;;;68.68;41.92;;;;;;;6.77;68.98;95790.84;4972912;28;20647;-72
2023/01/03 10:24:23;;;;;;;68.25;40.78;;;;;;;6.97;69.07;95789.81;4961827;28;20043;-70
2023/01/03 10:27:16;;;;;;;76.00;43.13;;;;;;;7.03;68.92;95782.56;4974422;28;20046;-72
2023/01/03 10:29:42;;;;;;;68.32;40.70;;;;;;;7.27;68.27;95776.97;4960612;28;20035;-76
2023/01/03 10:32:33;;;;;;;60.00;37.67;;;;;;;7.28;68.53;95776.06;4986172;28;20405;-73
2023/01/03 10:35:17;;;;;;;65.55;40.10;;;;;;;7.48;68.09;95773.22;4963663;28;20073;-73
2023/01/03 10:37:43;;;;;;;63.22;41.15;;;;;;;7.40;67.27;95775.38;4969913;28;20045;-73
2023/01/03 10:40:09;;;;;;;62.55;39.78;;;;;;;7.52;67.23;95764.38;4936322;28;20043;-73
2023/01/03 10:42:34;;;;;;;63.78;39.53;;;;;;;7.65;66.79;95761.09;4937662;29;20027;-73
2023/01/03 10:45:12;;;;;;;60.40;37.33;;;;;;;7.74;66.37;95747.63;4953994;28;20039;-71
2023/01/03 10:47:38;;;;;;;58.20;38.58;;;;;;;7.81;67.02;95756.72;4937697;29;20031;-71
2023/01/03 10:50:04;;;;;;;57.88;38.92;;;;;;;7.85;66.93;95745.28;4953909;28;20383;-71
2023/01/03 10:52:36;;;;;;;54.53;37.42;;;;;;;7.84;66.53;95738.44;4953688;29;20039;-71
2023/01/03 10:55:02;;;;;;;;;;;;;;;8.03;65.87;95744.22;4926564;28;20034;-71
2023/01/03 10:57:44;;;;;;;53.55;34.55;;;;;;;7.96;65.70;95747.25;4966014;28;20400;-71
2023/01/03 11:00:20;;;;;;;58.70;33.58;;;;;;;7.95;65.95;95736.06;4960029;28;20031;-71
2023/01/03 11:02:46;;;;;;;54.28;35.13;;;;;;;8.06;65.77;95725.94;4953218;28;20038;-71
2023/01/03 11:05:19;;;;;;;51.03;33.85;;;;;;;8.21;65.41;95725.94;4953529;28;20036;-71
2023/01/03 11:07:55;;;;;;;48.72;31.58;;;;;;;8.35;65.13;95713.00;4954527;28;20058;-70
2023/01/03 11:10:20;;;;;;;49.97;33.78;;;;;;;8.41;65.51;95714.44;4953132;28;20034;-71
2023/01/03 11:12:46;;;;;;;46.95;31.55;;;;;;;8.37;65.71;95705.16;4953401;29;20035;-71
2023/01/03 11:15:29;;;;;;;51.85;33.45;;;;;;;8.51;65.30;95710.38;4953518;28;20039;-71
2023/01/03 11:18:02;;;;;;;43.95;31.27;;;;;;;8.56;65.33;95700.56;4954519;28;20019;-71
2023/01/03 11:20:49;;;;;;;44.45;31.13;;;;;;;8.66;65.26;95700.84;4953226;29;20065;-71
2023/01/03 11:23:36;;;;;;;50.42;33.20;;;;;;;8.70;65.31;95694.56;4954363;28;20521;-72
2023/01/03 11:26:13;;;;;;;46.08;31.65;;;;;;;8.83;64.67;95697.19;4950468;28;20043;-71
2023/01/03 11:29:08;;;;;;;46.75;31.30;;;;;;;8.89;64.54;95695.09;4954369;28;20082;-71
2023/01/03 11:31:51;;;;;;;49.05;31.35;;;;;;;8.92;64.52;95684.53;4953005;29;20086;-71
2023/01/03 11:34:38;;;;;;;48.20;32.42;;;;;;;9.04;63.98;95684.69;4954167;28;20110;-72
2023/01/03 11:37:03;;;;;;;45.70;29.70;;;;;;;9.05;63.90;95683.75;4954122;28;20517;-71
2023/01/03 11:39:44;;;;;;;46.70;31.73;;;;;;;9.12;64.06;95672.06;4954029;28;20032;-71
2023/01/03 11:42:16;;;;;;;47.75;30.98;;;;;;;9.14;64.20;95671.06;4954039;28;20035;-71
2023/01/03 11:44:53;;;;;;;43.72;31.95;;;;;;;9.24;63.81;95673.03;4936870;29;20535;-71
2023/01/03 11:47:46;;;;;;;47.78;30.88;;;;;;;9.25;64.35;95670.38;4953926;28;20090;-71
2023/01/03 11:50:25;;;;;;;41.83;31.20;;;;;;;9.31;64.10;95662.19;4954332;28;20478;-71
2023/01/03 11:53:32;;;;;;;39.90;28.50;;;;;;;9.30;64.06;95657.91;4953874;28;20031;-71
2023/01/03 11:56:31;;;;;;;43.90;30.48;;;;;;;9.38;63.76;95660.03;4953500;28;20536;-71
2023/01/03 11:59:00;;;;;;;45.05;30.85;;;;;;;9.39;63.75;95657.34;4952530;28;20109;-71
2023/01/03 12:01:47;;;;;;;45.63;31.35;;;;;;;9.33;63.72;95646.50;4952389;28;20464;-71
2023/01/03 12:04:40;;;;;;;45.53;31.25;;;;;;;9.39;64.07;95656.53;4952791;28;20043;-71
2023/01/03 12:07:15;;;;;;;45.58;30.92;;;;;;;9.46;64.03;95649.16;4952360;28;20039;-71
2023/01/03 12:09:54;;;;;;;44.90;30.50;;;;;;;9.35;64.26;95645.50;4952567;28;20070;-71
2023/01/03 12:12:20;;;;;;;45.60;30.73;;;;;;;9.36;64.31;95646.31;4953826;28;20098;-71
2023/01/03 12:14:49;;;;;;;42.45;29.13;;;;;;;9.38;64.60;95645.28;4951696;28;20039;-71
2023/01/03 12:17:46;;;;;;;42.10;30.77;;;;;;;9.42;64.34;95639.91;4968283;28;20031;-71
2023/01/03 12:20:20;;;;;;;43.30;29.60;;;;;;;9.36;64.87;95641.13;4948354;29;20477;-71
2023/01/03 12:22:52;;;;;;;39.58;28.88;;;;;;;9.34;64.96;95632.66;4952221;29;20035;-70
2023/01/03 12:25:28;;;;;;;42.58;31.48;;;;;;;9.27;65.17;95618.41;4952274;28;20422;-70
2023/01/03 12:28:18;;;;;;;43.10;30.33;;;;;;;9.36;65.38;95636.81;4952677;28;20031;-71
2023/01/03 12:31:10;;;;;;;43.22;28.83;;;;;;;9.34;65.51;95625.69;4952183;29;20042;-70
2023/01/03 12:33:45;;;;;;;42.55;30.20;;;;;;;9.47;65.47;95635.25;4950105;29;20058;-71
2023/01/03 12:36:32;;;;;;;40.75;29.75;;;;;;;9.40;65.82;95638.25;4952061;29;20038;-72
2023/01/03 12:39:20;;;;;;;43.88;29.95;;;;;;;9.40;65.76;95625.28;4953180;28;20042;-72
2023/01/03 12:42:14;;;;;;;44.45;31.55;;;;;;;9.40;65.77;95619.28;4951871;29;20042;-71
2023/01/03 12:44:41;;;;;;;45.72;30.75;;;;;;;9.45;65.98;95632.78;4952077;28;20035;-72
2023/01/03 12:47:13;;;;;;;46.72;30.45;;;;;;;9.44;65.94;95632.84;4967832;28;20039;-72
2023/01/03 12:50:06;;;;;;;44.00;30.27;;;;;;;9.40;66.03;95627.88;4951765;28;20062;-72
2023/01/03 12:52:32;;;;;;;44.20;30.88;;;;;;;9.44;66.16;95633.69;4953323;28;20031;-72